sensor_id;sensor_type;location;lat;lon;timestamp;temperature;humidity
34536;DHT22;20779;55.596;37.538;2022-07-12T00:02:07;21.70;99.90
34536;DHT22;20779;55.596;37.538;2022-07-12T00:04:33;21.70;99.90
34536;DHT22;20779;55.596;37.538;2022-07-12T00:07:00;21.70;99.90
34536;DHT22;20779;55.596;37.538;2022-07-12T00:09:26;21.60;99.90
34536;DHT22;20779;55.596;37.538;2022-07-12T00:11:52;21.70;99.90
34536;DHT22;20779;55.596;37.538;2022-07-12T00:14:18;21.60;99.90
34536;DHT22;20779;55.596;37.538;2022-07-12T00:16:44;21.60;99.90
34536;DHT22;20779;55.596;37.538;2022-07-12T00:19:10;21.60;99.90
34536;DHT22;20779;55.596;37.538;2022-07-12T00:21:37;21.70;99.90
34536;DHT22;20779;55.596;37.538;2022-07-12T00:24:03;21.60;99.90
34536;DHT22;20779;55.596;37.538;2022-07-12T00:26:29;21.60;99.90
34536;DHT22;20779;55.596;37.538;2022-07-12T00:28:56;21.60;99.90
34536;DHT22;20779;55.596;37.538;2022-07-12T00:31:23;21.60;99.90
34536;DHT22;20779;55.596;37.538;2022-07-12T00:33:49;21.60;99.90
34536;DHT22;20779;55.596;37.538;2022-07-12T00:36:15;21.60;99.90
34536;DHT22;20779;55.596;37.538;2022-07-12T00:38:42;21.60;99.90
34536;DHT22;20779;55.596;37.538;2022-07-12T00:41:08;21.60;99.90
34536;DHT22;20779;55.596;37.538;2022-07-12T00:43:34;21.60;99.90
34536;DHT22;20779;55.596;37.538;2022-07-12T00:46:00;21.50;99.90
34536;DHT22;20779;55.596;37.538;2022-07-12T00:48:27;21.60;99.90
34536;DHT22;20779;55.596;37.538;2022-07-12T00:50:53;21.60;99.90
34536;DHT22;20779;55.596;37.538;2022-07-12T00:53:19;21.60;99.90
34536;DHT22;20779;55.596;37.538;2022-07-12T00:55:53;21.70;99.90
34536;DHT22;20779;55.596;37.538;2022-07-12T00:58:23;21.70;99.90
34536;DHT22;20779;55.596;37.538;2022-07-12T01:00:50;21.70;99.90
34536;DHT22;20779;55.596;37.538;2022-07-12T01:03:17;21.70;99.90
34536;DHT22;20779;55.596;37.538;2022-07-12T01:05:44;21.70;99.90
34536;DHT22;20779;55.596;37.538;2022-07-12T01:08:12;21.70;99.90
34536;DHT22;20779;55.596;37.538;2022-07-12T01:10:39;21.70;99.90
34536;DHT22;20779;55.596;37.538;2022-07-12T01:13:06;21.70;99.90
34536;DHT22;20779;55.596;37.538;2022-07-12T01:15:32;21.60;99.90
34536;DHT22;20779;55.596;37.538;2022-07-12T01:18:00;21.50;99.90
34536;DHT22;20779;55.596;37.538;2022-07-12T01:20:27;21.40;99.90
34536;DHT22;20779;55.596;37.538;2022-07-12T01:22:54;21.30;99.90
34536;DHT22;20779;55.596;37.538;2022-07-12T01:25:23;21.20;99.90
34536;DHT22;20779;55.596;37.538;2022-07-12T01:27:50;21.10;99.90
34536;DHT22;20779;55.596;37.538;2022-07-12T01:30:16;21.00;99.90
34536;DHT22;20779;55.596;37.538;2022-07-12T01:32:43;21.00;99.90
34536;DHT22;20779;55.596;37.538;2022-07-12T01:35:10;20.90;99.90
34536;DHT22;20779;55.596;37.538;2022-07-12T01:37:38;20.90;99.90
34536;DHT22;20779;55.596;37.538;2022-07-12T01:40:09;20.80;99.90
34536;DHT22;20779;55.596;37.538;2022-07-12T01:42:37;20.80;99.90
34536;DHT22;20779;55.596;37.538;2022-07-12T01:45:04;20.70;99.90
34536;DHT22;20779;55.596;37.538;2022-07-12T01:47:33;20.70;99.90
34536;DHT22;20779;55.596;37.538;2022-07-12T01:50:00;20.70;99.90
34536;DHT22;20779;55.596;37.538;2022-07-12T01:52:28;20.70;99.90
34536;DHT22;20779;55.596;37.538;2022-07-12T01:54:55;20.70;99.90
34536;DHT22;20779;55.596;37.538;2022-07-12T01:57:23;20.70;99.90
34536;DHT22;20779;55.596;37.538;2022-07-12T01:59:50;20.70;99.90
34536;DHT22;20779;55.596;37.538;2022-07-12T02:02:17;20.70;99.90
34536;DHT22;20779;55.596;37.538;2022-07-12T02:04:46;20.70;99.90
34536;DHT22;20779;55.596;37.538;2022-07-12T02:07:12;20.80;99.90
34536;DHT22;20779;55.596;37.538;2022-07-12T02:09:38;20.80;99.90
34536;DHT22;20779;55.596;37.538;2022-07-12T02:12:04;20.70;99.90
34536;DHT22;20779;55.596;37.538;2022-07-12T02:14:31;20.70;99.90
34536;DHT22;20779;55.596;37.538;2022-07-12T02:16:57;20.70;99.90
34536;DHT22;20779;55.596;37.538;2022-07-12T02:19:23;20.70;99.90
34536;DHT22;20779;55.596;37.538;2022-07-12T02:21:49;20.80;99.90
34536;DHT22;20779;55.596;37.538;2022-07-12T02:24:15;20.80;99.90
34536;DHT22;20779;55.596;37.538;2022-07-12T02:26:42;20.70;99.90
34536;DHT22;20779;55.596;37.538;2022-07-12T02:29:09;20.80;99.90
34536;DHT22;20779;55.596;37.538;2022-07-12T02:31:35;20.80;99.90
34536;DHT22;20779;55.596;37.538;2022-07-12T02:34:01;20.80;99.90
34536;DHT22;20779;55.596;37.538;2022-07-12T02:36:27;20.80;99.90
34536;DHT22;20779;55.596;37.538;2022-07-12T02:38:54;20.90;99.90
34536;DHT22;20779;55.596;37.538;2022-07-12T02:41:21;20.90;99.90
34536;DHT22;20779;55.596;37.538;2022-07-12T02:43:47;21.00;99.90
34536;DHT22;20779;55.596;37.538;2022-07-12T02:46:13;21.10;99.90
34536;DHT22;20779;55.596;37.538;2022-07-12T02:48:40;21.10;99.90
34536;DHT22;20779;55.596;37.538;2022-07-12T02:51:07;21.20;99.90
34536;DHT22;20779;55.596;37.538;2022-07-12T02:53:34;21.20;99.90
34536;DHT22;20779;55.596;37.538;2022-07-12T02:56:01;21.30;99.90
34536;DHT22;20779;55.596;37.538;2022-07-12T02:58:27;21.30;99.90
34536;DHT22;20779;55.596;37.538;2022-07-12T03:00:53;21.40;99.90
34536;DHT22;20779;55.596;37.538;2022-07-12T03:03:20;21.50;99.90
34536;DHT22;20779;55.596;37.538;2022-07-12T03:05:46;21.50;99.90
34536;DHT22;20779;55.596;37.538;2022-07-12T03:08:12;21.50;99.90
34536;DHT22;20779;55.596;37.538;2022-07-12T03:10:39;21.40;99.90
34536;DHT22;20779;55.596;37.538;2022-07-12T03:13:05;21.30;99.90
34536;DHT22;20779;55.596;37.538;2022-07-12T03:15:32;21.20;99.90
34536;DHT22;20779;55.596;37.538;2022-07-12T03:17:59;21.20;99.90
34536;DHT22;20779;55.596;37.538;2022-07-12T03:20:30;21.20;99.90
34536;DHT22;20779;55.596;37.538;2022-07-12T03:22:57;21.30;99.90
34536;DHT22;20779;55.596;37.538;2022-07-12T03:25:24;21.40;99.90
34536;DHT22;20779;55.596;37.538;2022-07-12T03:27:50;21.40;99.90
34536;DHT22;20779;55.596;37.538;2022-07-12T03:30:17;21.40;99.90
34536;DHT22;20779;55.596;37.538;2022-07-12T03:32:44;21.50;99.90
34536;DHT22;20779;55.596;37.538;2022-07-12T03:35:10;21.50;99.90
34536;DHT22;20779;55.596;37.538;2022-07-12T03:37:48;21.40;99.90
34536;DHT22;20779;55.596;37.538;2022-07-12T03:40:16;21.30;99.90
34536;DHT22;20779;55.596;37.538;2022-07-12T03:42:44;21.30;99.90
34536;DHT22;20779;55.596;37.538;2022-07-12T03:45:12;21.30;99.90
34536;DHT22;20779;55.596;37.538;2022-07-12T03:47:39;21.30;99.90
34536;DHT22;20779;55.596;37.538;2022-07-12T03:50:07;21.30;99.90
34536;DHT22;20779;55.596;37.538;2022-07-12T03:52:38;21.50;99.90
34536;DHT22;20779;55.596;37.538;2022-07-12T03:55:06;21.70;99.90
34536;DHT22;20779;55.596;37.538;2022-07-12T03:57:32;21.80;99.90
34536;DHT22;20779;55.596;37.538;2022-07-12T03:59:59;22.00;99.90
34536;DHT22;20779;55.596;37.538;2022-07-12T04:02:25;22.40;99.90
34536;DHT22;20779;55.596;37.538;2022-07-12T04:04:52;22.90;99.90
34536;DHT22;20779;55.596;37.538;2022-07-12T04:07:18;23.20;99.90
34536;DHT22;20779;55.596;37.538;2022-07-12T04:09:44;23.60;99.90
34536;DHT22;20779;55.596;37.538;2022-07-12T04:12:11;23.90;99.90
34536;DHT22;20779;55.596;37.538;2022-07-12T04:14:37;23.70;99.90
34536;DHT22;20779;55.596;37.538;2022-07-12T04:17:04;23.60;99.90
34536;DHT22;20779;55.596;37.538;2022-07-12T04:19:32;23.60;99.90
34536;DHT22;20779;55.596;37.538;2022-07-12T04:21:59;23.40;99.90
34536;DHT22;20779;55.596;37.538;2022-07-12T04:24:26;23.30;99.90
34536;DHT22;20779;55.596;37.538;2022-07-12T04:26:52;23.50;99.90
34536;DHT22;20779;55.596;37.538;2022-07-12T04:29:19;23.70;99.90
34536;DHT22;20779;55.596;37.538;2022-07-12T04:31:46;23.90;99.90
34536;DHT22;20779;55.596;37.538;2022-07-12T04:34:13;24.20;99.90
34536;DHT22;20779;55.596;37.538;2022-07-12T04:36:45;24.20;99.90
34536;DHT22;20779;55.596;37.538;2022-07-12T04:39:12;23.90;99.90
34536;DHT22;20779;55.596;37.538;2022-07-12T04:41:38;23.50;99.90
34536;DHT22;20779;55.596;37.538;2022-07-12T04:44:08;23.30;99.90
34536;DHT22;20779;55.596;37.538;2022-07-12T04:46:34;23.20;99.90
34536;DHT22;20779;55.596;37.538;2022-07-12T04:49:00;22.90;99.90
34536;DHT22;20779;55.596;37.538;2022-07-12T04:51:27;22.80;99.90
34536;DHT22;20779;55.596;37.538;2022-07-12T04:53:53;22.80;99.90
34536;DHT22;20779;55.596;37.538;2022-07-12T04:56:20;22.70;99.90
34536;DHT22;20779;55.596;37.538;2022-07-12T04:58:46;22.60;99.90
34536;DHT22;20779;55.596;37.538;2022-07-12T05:01:13;22.50;99.90
34536;DHT22;20779;55.596;37.538;2022-07-12T05:03:39;22.40;99.90
34536;DHT22;20779;55.596;37.538;2022-07-12T05:06:05;22.30;99.90
34536;DHT22;20779;55.596;37.538;2022-07-12T05:08:31;22.20;99.90
34536;DHT22;20779;55.596;37.538;2022-07-12T05:10:57;22.20;99.90
34536;DHT22;20779;55.596;37.538;2022-07-12T05:13:24;22.20;99.90
34536;DHT22;20779;55.596;37.538;2022-07-12T05:15:50;22.10;99.90
34536;DHT22;20779;55.596;37.538;2022-07-12T05:18:16;22.10;99.90
34536;DHT22;20779;55.596;37.538;2022-07-12T05:20:42;22.10;99.90
34536;DHT22;20779;55.596;37.538;2022-07-12T05:23:08;22.10;99.90
34536;DHT22;20779;55.596;37.538;2022-07-12T05:25:34;22.00;99.90
34536;DHT22;20779;55.596;37.538;2022-07-12T05:28:01;22.10;99.90
34536;DHT22;20779;55.596;37.538;2022-07-12T05:30:27;22.10;99.90
34536;DHT22;20779;55.596;37.538;2022-07-12T05:32:53;22.10;99.90
34536;DHT22;20779;55.596;37.538;2022-07-12T05:35:19;22.10;99.90
34536;DHT22;20779;55.596;37.538;2022-07-12T05:37:45;22.10;99.90
34536;DHT22;20779;55.596;37.538;2022-07-12T05:40:11;22.10;99.90
34536;DHT22;20779;55.596;37.538;2022-07-12T05:42:38;22.10;99.90
34536;DHT22;20779;55.596;37.538;2022-07-12T05:45:05;22.10;99.90
34536;DHT22;20779;55.596;37.538;2022-07-12T05:47:31;21.90;99.90
34536;DHT22;20779;55.596;37.538;2022-07-12T05:49:58;21.70;99.90
34536;DHT22;20779;55.596;37.538;2022-07-12T05:52:24;21.60;99.90
34536;DHT22;20779;55.596;37.538;2022-07-12T05:55:08;21.40;99.90
34536;DHT22;20779;55.596;37.538;2022-07-12T05:57:36;21.30;99.90
34536;DHT22;20779;55.596;37.538;2022-07-12T06:00:03;21.20;99.90
34536;DHT22;20779;55.596;37.538;2022-07-12T06:02:30;21.10;99.90
34536;DHT22;20779;55.596;37.538;2022-07-12T06:04:56;21.00;99.90
34536;DHT22;20779;55.596;37.538;2022-07-12T06:07:22;20.90;99.90
34536;DHT22;20779;55.596;37.538;2022-07-12T06:09:49;20.80;99.90
34536;DHT22;20779;55.596;37.538;2022-07-12T06:12:15;20.90;99.90
34536;DHT22;20779;55.596;37.538;2022-07-12T06:14:41;20.80;99.90
34536;DHT22;20779;55.596;37.538;2022-07-12T06:17:07;20.80;99.90
34536;DHT22;20779;55.596;37.538;2022-07-12T06:19:33;20.80;99.90
34536;DHT22;20779;55.596;37.538;2022-07-12T06:21:59;20.70;99.90
34536;DHT22;20779;55.596;37.538;2022-07-12T06:24:26;20.70;99.90
34536;DHT22;20779;55.596;37.538;2022-07-12T06:26:53;20.80;99.90
34536;DHT22;20779;55.596;37.538;2022-07-12T06:29:19;20.90;99.90
34536;DHT22;20779;55.596;37.538;2022-07-12T06:31:45;20.90;99.90
34536;DHT22;20779;55.596;37.538;2022-07-12T06:34:12;20.90;99.90
34536;DHT22;20779;55.596;37.538;2022-07-12T06:36:38;20.90;99.90
34536;DHT22;20779;55.596;37.538;2022-07-12T06:39:04;20.90;99.90
34536;DHT22;20779;55.596;37.538;2022-07-12T06:41:30;20.90;99.90
34536;DHT22;20779;55.596;37.538;2022-07-12T06:43:56;20.90;99.90
34536;DHT22;20779;55.596;37.538;2022-07-12T06:46:22;20.90;99.90
34536;DHT22;20779;55.596;37.538;2022-07-12T06:48:48;20.80;99.90
34536;DHT22;20779;55.596;37.538;2022-07-12T06:51:14;20.80;99.90
34536;DHT22;20779;55.596;37.538;2022-07-12T06:53:41;20.80;99.90
34536;DHT22;20779;55.596;37.538;2022-07-12T06:56:07;20.80;99.90
34536;DHT22;20779;55.596;37.538;2022-07-12T06:58:33;20.70;99.90
34536;DHT22;20779;55.596;37.538;2022-07-12T07:00:59;20.80;99.90
34536;DHT22;20779;55.596;37.538;2022-07-12T07:03:25;20.80;99.90
34536;DHT22;20779;55.596;37.538;2022-07-12T07:05:51;20.90;99.90
34536;DHT22;20779;55.596;37.538;2022-07-12T07:08:18;21.10;99.90
34536;DHT22;20779;55.596;37.538;2022-07-12T07:10:44;21.20;99.90
34536;DHT22;20779;55.596;37.538;2022-07-12T07:13:10;21.50;99.90
34536;DHT22;20779;55.596;37.538;2022-07-12T07:15:39;21.90;99.90
34536;DHT22;20779;55.596;37.538;2022-07-12T07:18:06;22.20;99.90
34536;DHT22;20779;55.596;37.538;2022-07-12T07:20:33;22.80;99.90
34536;DHT22;20779;55.596;37.538;2022-07-12T07:23:00;23.20;99.90
34536;DHT22;20779;55.596;37.538;2022-07-12T07:25:26;23.40;99.90
34536;DHT22;20779;55.596;37.538;2022-07-12T07:27:52;23.50;99.90
34536;DHT22;20779;55.596;37.538;2022-07-12T07:30:18;23.50;99.90
34536;DHT22;20779;55.596;37.538;2022-07-12T07:33:03;23.60;99.90
34536;DHT22;20779;55.596;37.538;2022-07-12T07:35:29;23.60;99.90
34536;DHT22;20779;55.596;37.538;2022-07-12T07:37:55;23.60;99.90
34536;DHT22;20779;55.596;37.538;2022-07-12T07:40:22;23.60;99.90
34536;DHT22;20779;55.596;37.538;2022-07-12T07:42:48;23.80;99.90
34536;DHT22;20779;55.596;37.538;2022-07-12T07:45:14;23.90;99.90
34536;DHT22;20779;55.596;37.538;2022-07-12T07:47:47;23.70;99.90
34536;DHT22;20779;55.596;37.538;2022-07-12T07:50:15;23.70;99.90
34536;DHT22;20779;55.596;37.538;2022-07-12T07:52:41;23.70;99.90
34536;DHT22;20779;55.596;37.538;2022-07-12T07:55:08;23.60;99.90
34536;DHT22;20779;55.596;37.538;2022-07-12T07:57:34;23.60;99.90
34536;DHT22;20779;55.596;37.538;2022-07-12T08:00:00;23.50;99.90
34536;DHT22;20779;55.596;37.538;2022-07-12T08:02:38;23.30;99.90
34536;DHT22;20779;55.596;37.538;2022-07-12T08:05:04;23.20;99.90
34536;DHT22;20779;55.596;37.538;2022-07-12T08:07:31;23.30;99.90
34536;DHT22;20779;55.596;37.538;2022-07-12T08:09:57;23.60;99.90
34536;DHT22;20779;55.596;37.538;2022-07-12T08:12:23;24.00;99.90
34536;DHT22;20779;55.596;37.538;2022-07-12T08:14:49;24.10;99.90
34536;DHT22;20779;55.596;37.538;2022-07-12T08:17:15;24.10;99.90
34536;DHT22;20779;55.596;37.538;2022-07-12T08:19:42;24.20;99.90
34536;DHT22;20779;55.596;37.538;2022-07-12T08:22:08;24.30;99.90
34536;DHT22;20779;55.596;37.538;2022-07-12T08:24:35;24.70;99.90
34536;DHT22;20779;55.596;37.538;2022-07-12T08:27:01;24.80;99.90
34536;DHT22;20779;55.596;37.538;2022-07-12T08:29:28;24.60;99.90
34536;DHT22;20779;55.596;37.538;2022-07-12T08:31:54;24.40;99.90
34536;DHT22;20779;55.596;37.538;2022-07-12T08:34:20;24.60;99.90
34536;DHT22;20779;55.596;37.538;2022-07-12T08:36:47;24.60;99.90
34536;DHT22;20779;55.596;37.538;2022-07-12T08:39:13;24.70;99.90
34536;DHT22;20779;55.596;37.538;2022-07-12T08:41:39;24.60;99.90
34536;DHT22;20779;55.596;37.538;2022-07-12T08:44:05;24.40;99.90
34536;DHT22;20779;55.596;37.538;2022-07-12T08:46:31;24.40;99.90
34536;DHT22;20779;55.596;37.538;2022-07-12T08:49:05;24.40;99.90
34536;DHT22;20779;55.596;37.538;2022-07-12T08:51:33;24.40;99.90
34536;DHT22;20779;55.596;37.538;2022-07-12T08:54:09;24.60;99.90
34536;DHT22;20779;55.596;37.538;2022-07-12T08:56:42;24.60;99.90
34536;DHT22;20779;55.596;37.538;2022-07-12T08:59:10;24.70;99.90
34536;DHT22;20779;55.596;37.538;2022-07-12T09:04:13;24.80;99.90
34536;DHT22;20779;55.596;37.538;2022-07-12T09:06:41;24.90;99.90
34536;DHT22;20779;55.596;37.538;2022-07-12T09:09:08;24.70;99.90
34536;DHT22;20779;55.596;37.538;2022-07-12T09:11:38;24.90;99.90
34536;DHT22;20779;55.596;37.538;2022-07-12T09:14:05;24.80;99.90
34536;DHT22;20779;55.596;37.538;2022-07-12T09:16:32;24.90;99.90
34536;DHT22;20779;55.596;37.538;2022-07-12T09:19:16;25.00;99.90
34536;DHT22;20779;55.596;37.538;2022-07-12T09:21:48;24.80;99.90
34536;DHT22;20779;55.596;37.538;2022-07-12T09:24:17;24.70;99.90
34536;DHT22;20779;55.596;37.538;2022-07-12T09:26:45;24.60;99.90
34536;DHT22;20779;55.596;37.538;2022-07-12T09:29:13;24.50;99.90
34536;DHT22;20779;55.596;37.538;2022-07-12T09:31:44;24.50;99.90
34536;DHT22;20779;55.596;37.538;2022-07-12T09:34:32;24.50;99.90
34536;DHT22;20779;55.596;37.538;2022-07-12T09:37:17;24.70;99.90
34536;DHT22;20779;55.596;37.538;2022-07-12T09:39:44;24.90;99.90
34536;DHT22;20779;55.596;37.538;2022-07-12T09:42:11;25.00;99.90
34536;DHT22;20779;55.596;37.538;2022-07-12T09:44:38;25.40;99.90
34536;DHT22;20779;55.596;37.538;2022-07-12T09:47:10;25.40;99.90
34536;DHT22;20779;55.596;37.538;2022-07-12T09:49:45;25.20;99.90
34536;DHT22;20779;55.596;37.538;2022-07-12T09:52:19;24.90;99.90
34536;DHT22;20779;55.596;37.538;2022-07-12T09:54:46;24.80;99.90
34536;DHT22;20779;55.596;37.538;2022-07-12T09:57:27;24.80;99.90
34536;DHT22;20779;55.596;37.538;2022-07-12T09:59:58;25.00;99.90
34536;DHT22;20779;55.596;37.538;2022-07-12T10:02:25;25.10;99.90
34536;DHT22;20779;55.596;37.538;2022-07-12T10:04:52;25.30;99.90
34536;DHT22;20779;55.596;37.538;2022-07-12T10:07:19;25.50;99.90
34536;DHT22;20779;55.596;37.538;2022-07-12T10:09:52;25.70;99.90
34536;DHT22;20779;55.596;37.538;2022-07-12T10:12:21;25.80;99.90
34536;DHT22;20779;55.596;37.538;2022-07-12T10:15:07;25.70;99.90
34536;DHT22;20779;55.596;37.538;2022-07-12T10:17:37;25.40;99.90
34536;DHT22;20779;55.596;37.538;2022-07-12T10:20:21;25.40;99.90
34536;DHT22;20779;55.596;37.538;2022-07-12T10:22:53;25.20;99.90
34536;DHT22;20779;55.596;37.538;2022-07-12T10:25:32;25.20;99.90
34536;DHT22;20779;55.596;37.538;2022-07-12T10:28:01;25.00;99.90
34536;DHT22;20779;55.596;37.538;2022-07-12T10:30:28;24.90;99.90
34536;DHT22;20779;55.596;37.538;2022-07-12T10:32:57;24.90;99.90
34536;DHT22;20779;55.596;37.538;2022-07-12T10:35:30;24.90;99.90
34536;DHT22;20779;55.596;37.538;2022-07-12T10:40:39;24.80;99.90
34536;DHT22;20779;55.596;37.538;2022-07-12T10:45:36;24.80;99.90
34536;DHT22;20779;55.596;37.538;2022-07-12T10:48:18;24.80;99.90
34536;DHT22;20779;55.596;37.538;2022-07-12T10:53:30;24.80;99.90
34536;DHT22;20779;55.596;37.538;2022-07-12T10:56:21;24.80;99.90
34536;DHT22;20779;55.596;37.538;2022-07-12T10:58:52;24.80;99.90
34536;DHT22;20779;55.596;37.538;2022-07-12T11:01:23;24.70;99.90
34536;DHT22;20779;55.596;37.538;2022-07-12T11:04:07;24.60;99.90
34536;DHT22;20779;55.596;37.538;2022-07-12T11:06:39;24.70;99.90
34536;DHT22;20779;55.596;37.538;2022-07-12T11:09:16;24.80;99.90
34536;DHT22;20779;55.596;37.538;2022-07-12T11:11:47;24.60;99.90
34536;DHT22;20779;55.596;37.538;2022-07-12T11:14:32;24.70;99.90
34536;DHT22;20779;55.596;37.538;2022-07-12T11:17:00;25.10;99.90
34536;DHT22;20779;55.596;37.538;2022-07-12T11:19:30;25.50;99.90
34536;DHT22;20779;55.596;37.538;2022-07-12T11:21:58;25.60;99.90
34536;DHT22;20779;55.596;37.538;2022-07-12T11:24:29;25.70;99.90
34536;DHT22;20779;55.596;37.538;2022-07-12T11:26:57;25.70;99.90
34536;DHT22;20779;55.596;37.538;2022-07-12T11:29:25;25.60;99.90
34536;DHT22;20779;55.596;37.538;2022-07-12T11:32:00;25.50;99.90
34536;DHT22;20779;55.596;37.538;2022-07-12T11:34:30;25.60;99.90
34536;DHT22;20779;55.596;37.538;2022-07-12T11:36:57;25.70;99.90
34536;DHT22;20779;55.596;37.538;2022-07-12T11:39:35;25.70;99.90
34536;DHT22;20779;55.596;37.538;2022-07-12T11:42:04;25.50;99.90
34536;DHT22;20779;55.596;37.538;2022-07-12T11:44:47;25.20;99.90
34536;DHT22;20779;55.596;37.538;2022-07-12T11:47:16;25.00;99.90
34536;DHT22;20779;55.596;37.538;2022-07-12T11:49:49;24.80;99.90
34536;DHT22;20779;55.596;37.538;2022-07-12T11:52:17;24.80;99.90
34536;DHT22;20779;55.596;37.538;2022-07-12T11:54:46;24.80;99.90
34536;DHT22;20779;55.596;37.538;2022-07-12T11:57:14;24.80;99.90
34536;DHT22;20779;55.596;37.538;2022-07-12T11:59:41;24.90;99.90
34536;DHT22;20779;55.596;37.538;2022-07-12T12:02:12;25.00;99.90
34536;DHT22;20779;55.596;37.538;2022-07-12T12:04:54;25.20;99.90
34536;DHT22;20779;55.596;37.538;2022-07-12T12:07:23;25.20;99.90
34536;DHT22;20779;55.596;37.538;2022-07-12T12:10:16;25.20;99.90
34536;DHT22;20779;55.596;37.538;2022-07-12T12:15:23;24.80;99.90
34536;DHT22;20779;55.596;37.538;2022-07-12T12:17:57;24.70;99.90
34536;DHT22;20779;55.596;37.538;2022-07-12T12:20:37;24.40;99.90
34536;DHT22;20779;55.596;37.538;2022-07-12T12:23:05;24.20;99.90
34536;DHT22;20779;55.596;37.538;2022-07-12T12:25:33;24.10;99.90
34536;DHT22;20779;55.596;37.538;2022-07-12T12:28:02;24.00;99.90
34536;DHT22;20779;55.596;37.538;2022-07-12T12:30:31;23.90;99.90
34536;DHT22;20779;55.596;37.538;2022-07-12T12:33:02;23.80;99.90
34536;DHT22;20779;55.596;37.538;2022-07-12T12:35:38;23.60;99.90
34536;DHT22;20779;55.596;37.538;2022-07-12T12:38:14;23.50;99.90
34536;DHT22;20779;55.596;37.538;2022-07-12T12:40:50;23.40;99.90
34536;DHT22;20779;55.596;37.538;2022-07-12T12:43:20;23.00;99.90
34536;DHT22;20779;55.596;37.538;2022-07-12T12:45:54;22.80;99.90
34536;DHT22;20779;55.596;37.538;2022-07-12T12:48:26;22.60;99.90
34536;DHT22;20779;55.596;37.538;2022-07-12T12:53:39;22.30;99.90
34536;DHT22;20779;55.596;37.538;2022-07-12T12:56:12;21.90;99.90
34536;DHT22;20779;55.596;37.538;2022-07-12T12:58:39;21.40;99.90
34536;DHT22;20779;55.596;37.538;2022-07-12T13:01:07;21.10;99.90
34536;DHT22;20779;55.596;37.538;2022-07-12T13:03:33;20.80;99.90
34536;DHT22;20779;55.596;37.538;2022-07-12T13:06:00;20.80;99.90
34536;DHT22;20779;55.596;37.538;2022-07-12T13:08:28;20.90;99.90
34536;DHT22;20779;55.596;37.538;2022-07-12T13:10:54;20.90;99.90
34536;DHT22;20779;55.596;37.538;2022-07-12T13:13:43;21.20;99.90
34536;DHT22;20779;55.596;37.538;2022-07-12T13:16:09;21.50;99.90
34536;DHT22;20779;55.596;37.538;2022-07-12T13:18:35;21.70;99.90
34536;DHT22;20779;55.596;37.538;2022-07-12T13:21:02;22.10;99.90
34536;DHT22;20779;55.596;37.538;2022-07-12T13:23:28;22.10;99.90
34536;DHT22;20779;55.596;37.538;2022-07-12T13:25:54;22.20;99.90
34536;DHT22;20779;55.596;37.538;2022-07-12T13:28:21;22.30;99.90
34536;DHT22;20779;55.596;37.538;2022-07-12T13:30:47;22.30;99.90
34536;DHT22;20779;55.596;37.538;2022-07-12T13:33:13;22.10;99.90
34536;DHT22;20779;55.596;37.538;2022-07-12T13:35:41;22.00;99.90
34536;DHT22;20779;55.596;37.538;2022-07-12T13:38:08;22.10;99.90
34536;DHT22;20779;55.596;37.538;2022-07-12T13:40:34;22.20;99.90
34536;DHT22;20779;55.596;37.538;2022-07-12T13:43:01;22.40;99.90
34536;DHT22;20779;55.596;37.538;2022-07-12T13:45:27;22.60;99.90
34536;DHT22;20779;55.596;37.538;2022-07-12T13:47:54;22.80;99.90
34536;DHT22;20779;55.596;37.538;2022-07-12T13:50:22;23.00;99.90
34536;DHT22;20779;55.596;37.538;2022-07-12T13:52:49;23.10;99.90
34536;DHT22;20779;55.596;37.538;2022-07-12T13:55:16;23.10;99.90
34536;DHT22;20779;55.596;37.538;2022-07-12T13:57:44;23.10;99.90
34536;DHT22;20779;55.596;37.538;2022-07-12T14:00:15;23.00;99.90
34536;DHT22;20779;55.596;37.538;2022-07-12T14:02:45;23.00;99.90
34536;DHT22;20779;55.596;37.538;2022-07-12T14:05:12;23.00;99.90
34536;DHT22;20779;55.596;37.538;2022-07-12T14:07:40;23.00;99.90
34536;DHT22;20779;55.596;37.538;2022-07-12T14:10:08;23.30;99.90
34536;DHT22;20779;55.596;37.538;2022-07-12T14:12:36;23.50;99.90
34536;DHT22;20779;55.596;37.538;2022-07-12T14:15:03;23.70;99.90
34536;DHT22;20779;55.596;37.538;2022-07-12T14:17:48;23.80;99.90
34536;DHT22;20779;55.596;37.538;2022-07-12T14:20:21;23.80;99.90
34536;DHT22;20779;55.596;37.538;2022-07-12T14:22:48;23.90;99.90
34536;DHT22;20779;55.596;37.538;2022-07-12T14:25:16;23.90;99.90
34536;DHT22;20779;55.596;37.538;2022-07-12T14:27:42;23.80;99.90
34536;DHT22;20779;55.596;37.538;2022-07-12T14:30:12;23.80;99.90
34536;DHT22;20779;55.596;37.538;2022-07-12T14:32:40;23.70;99.90
34536;DHT22;20779;55.596;37.538;2022-07-12T14:35:08;23.80;99.90
34536;DHT22;20779;55.596;37.538;2022-07-12T14:37:35;23.80;99.90
34536;DHT22;20779;55.596;37.538;2022-07-12T14:40:03;23.80;99.90
34536;DHT22;20779;55.596;37.538;2022-07-12T14:42:29;23.90;99.90
34536;DHT22;20779;55.596;37.538;2022-07-12T14:44:56;23.90;99.90
34536;DHT22;20779;55.596;37.538;2022-07-12T14:47:22;23.90;99.90
34536;DHT22;20779;55.596;37.538;2022-07-12T14:49:49;24.00;99.90
34536;DHT22;20779;55.596;37.538;2022-07-12T14:52:16;23.90;99.90
34536;DHT22;20779;55.596;37.538;2022-07-12T14:54:43;23.90;99.90
34536;DHT22;20779;55.596;37.538;2022-07-12T14:57:10;24.00;99.90
34536;DHT22;20779;55.596;37.538;2022-07-12T14:59:36;23.90;99.90
34536;DHT22;20779;55.596;37.538;2022-07-12T15:02:03;23.90;99.90
34536;DHT22;20779;55.596;37.538;2022-07-12T15:04:29;23.80;99.90
34536;DHT22;20779;55.596;37.538;2022-07-12T15:06:56;23.80;99.90
34536;DHT22;20779;55.596;37.538;2022-07-12T15:09:22;23.80;99.90
34536;DHT22;20779;55.596;37.538;2022-07-12T15:11:48;23.60;99.90
34536;DHT22;20779;55.596;37.538;2022-07-12T15:14:14;23.60;99.90
34536;DHT22;20779;55.596;37.538;2022-07-12T15:16:41;23.50;99.90
34536;DHT22;20779;55.596;37.538;2022-07-12T15:19:07;23.40;99.90
34536;DHT22;20779;55.596;37.538;2022-07-12T15:21:33;23.40;99.90
34536;DHT22;20779;55.596;37.538;2022-07-12T15:23:59;23.30;99.90
34536;DHT22;20779;55.596;37.538;2022-07-12T15:26:25;23.30;99.90
34536;DHT22;20779;55.596;37.538;2022-07-12T15:28:59;23.30;99.90
34536;DHT22;20779;55.596;37.538;2022-07-12T15:31:28;23.10;99.90
34536;DHT22;20779;55.596;37.538;2022-07-12T15:33:56;22.90;99.90
34536;DHT22;20779;55.596;37.538;2022-07-12T15:36:22;22.80;99.90
34536;DHT22;20779;55.596;37.538;2022-07-12T15:38:49;22.70;99.90